Time;durP1;ratioP1;P1;durP2;ratioP2;P2;SDS_P1;SDS_P2;PMS_P1;PMS_P2;Temp;Humidity;BMP_temperature;BMP_pressure;BME280_temperature;BME280_humidity;BME280_pressure;Samples;Min_cycle;Max_cycle;Signal;HPM_P1;HPM_P2
2022/05/29 00:00:51;;;;;;;8.90;2.15;;;;;;;7.97;82.32;102029.25;5059612;28;20397;-74
2022/05/29 00:03:17;;;;;;;4.45;1.42;;;;;;;8.07;81.36;102021.59;5059500;28;20048;-72
2022/05/29 00:05:45;;;;;;;7.65;1.88;;;;;;;8.21;80.99;102024.25;5058742;28;20043;-73
2022/05/29 00:08:14;;;;;;;14.50;2.28;;;;;;;8.32;80.14;102025.41;5059776;28;20032;-73
2022/05/29 00:10:42;;;;;;;4.20;1.45;;;;;;;8.40;79.51;102020.47;5059638;28;20144;-73
2022/05/29 00:13:08;;;;;;;6.63;1.35;;;;;;;8.45;76.91;102024.56;5060888;28;20028;-74
2022/05/29 00:15:33;;;;;;;5.90;1.95;;;;;;;8.47;75.82;102022.66;5061297;28;20370;-73
2022/05/29 00:17:59;;;;;;;8.57;1.77;;;;;;;8.52;74.61;102016.22;5060561;28;20484;-73
2022/05/29 00:20:24;;;;;;;6.60;1.77;;;;;;;8.52;73.80;102005.59;5061608;28;20033;-72
2022/05/29 00:22:50;;;;;;;5.45;1.27;;;;;;;8.54;73.40;102016.97;5062481;28;20049;-72
2022/05/29 00:25:15;;;;;;;8.38;1.50;;;;;;;8.54;72.71;102003.69;5061878;28;20056;-72
2022/05/29 00:27:40;;;;;;;7.32;1.80;;;;;;;8.56;71.92;102009.78;5060056;28;20037;-72
2022/05/29 00:30:09;;;;;;;9.20;1.35;;;;;;;8.58;71.41;101999.91;5059778;28;20037;-72
2022/05/29 00:32:34;;;;;;;2.85;1.10;;;;;;;8.59;71.34;102002.47;5059848;28;20033;-73
2022/05/29 00:35:00;;;;;;;6.88;1.80;;;;;;;8.59;71.30;101996.31;5041632;28;20052;-72
2022/05/29 00:37:25;;;;;;;5.40;1.52;;;;;;;8.57;71.63;101995.53;5060122;28;20032;-72
2022/05/29 00:39:53;;;;;;;9.05;1.55;;;;;;;8.53;72.55;101991.41;5059660;28;20083;-72
2022/05/29 00:42:22;;;;;;;6.57;1.48;;;;;;;8.44;73.34;101996.31;5059560;28;20148;-72
2022/05/29 00:44:49;;;;;;;7.93;2.22;;;;;;;8.35;74.10;102002.19;5059372;28;20032;-72
2022/05/29 00:47:20;;;;;;;12.45;2.08;;;;;;;8.22;75.35;101991.47;5060044;28;20041;-72
2022/05/29 00:49:48;;;;;;;12.55;2.33;;;;;;;8.12;77.12;101996.53;5059439;28;20361;-73
2022/05/29 00:52:28;;;;;;;12.48;2.40;;;;;;;8.03;77.94;101983.84;5059063;28;20028;-72
2022/05/29 00:55:05;;;;;;;10.52;2.28;;;;;;;7.98;78.77;101987.72;5056175;28;20037;-72
2022/05/29 00:57:37;;;;;;;5.90;1.88;;;;;;;7.88;79.15;101982.09;5056235;28;20025;-72
2022/05/29 01:00:09;;;;;;;10.80;2.00;;;;;;;7.84;80.62;101981.44;5056185;28;20087;-73
2022/05/29 01:02:35;;;;;;;10.05;2.05;;;;;;;7.87;81.64;101977.78;5056086;28;20348;-73
2022/05/29 01:05:04;;;;;;;14.45;2.40;;;;;;;7.93;82.35;101969.44;5056322;28;20029;-72
2022/05/29 01:07:30;;;;;;;13.30;2.70;;;;;;;7.97;82.74;101965.63;5056030;28;20103;-72
2022/05/29 01:09:58;;;;;;;8.63;2.08;;;;;;;7.99;82.83;101966.41;5054754;28;20080;-72
2022/05/29 01:12:31;;;;;;;12.48;2.53;;;;;;;8.00;83.21;101960.16;5055626;28;20457;-72
2022/05/29 01:15:29;;;;;;;9.82;2.72;;;;;;;7.97;83.25;101959.50;5054748;28;20033;-72
2022/05/29 01:18:33;;;;;;;10.90;1.90;;;;;;;7.97;83.07;101957.69;5055880;28;20025;-72
2022/05/29 01:21:13;;;;;;;9.50;1.95;;;;;;;8.01;83.05;101955.72;5056056;28;20025;-73
2022/05/29 01:24:12;;;;;;;9.90;1.73;;;;;;;8.08;82.92;101949.94;5055951;28;20029;-73
2022/05/29 01:26:57;;;;;;;6.95;1.80;;;;;;;8.21;82.67;101957.09;5055454;28;20036;-73
2022/05/29 01:29:51;;;;;;;13.68;2.30;;;;;;;8.32;82.17;101948.50;5055622;28;20059;-72
2022/05/29 01:32:23;;;;;;;11.00;2.13;;;;;;;8.44;82.22;101945.94;5055274;28;20103;-72
2022/05/29 01:34:54;;;;;;;10.90;2.00;;;;;;;8.55;81.41;101942.59;5055986;28;20025;-72
2022/05/29 01:37:35;;;;;;;8.63;1.75;;;;;;;8.68;81.03;101939.16;5055440;28;20033;-72
2022/05/29 01:40:09;;;;;;;5.75;1.67;;;;;;;8.74;80.89;101936.94;5055756;28;20110;-72
2022/05/29 01:42:57;;;;;;;6.72;2.25;;;;;;;8.83;80.52;101933.69;5055942;28;20048;-73
2022/05/29 01:46:10;;;;;;;10.05;2.30;;;;;;;8.91;80.21;101929.66;5055135;28;20029;-72
2022/05/29 01:48:39;;;;;;;8.75;1.90;;;;;;;8.98;79.92;101930.97;5050810;28;20045;-72
2022/05/29 01:51:14;;;;;;;5.20;1.67;;;;;;;9.02;79.81;101923.63;5055103;28;20439;-73
2022/05/29 01:53:43;;;;;;;8.25;1.88;;;;;;;9.04;80.57;101922.59;5054414;28;20357;-72
2022/05/29 01:56:32;;;;;;;9.70;1.80;;;;;;;9.08;79.81;101918.78;5055011;28;20112;-72
2022/05/29 01:59:03;;;;;;;12.68;2.00;;;;;;;9.11;79.50;101923.88;5055143;28;20083;-73
2022/05/29 02:01:35;;;;;;;10.50;2.28;;;;;;;9.13;79.09;101924.63;5054294;28;20032;-77
2022/05/29 02:04:06;;;;;;;12.68;1.90;;;;;;;9.12;78.48;101914.97;5053356;28;20033;-78
2022/05/29 02:09:24;;;;;;;6.65;1.75;;;;;;;9.16;78.55;101916.44;5053443;28;20035;-78
2022/05/29 02:11:54;;;;;;;4.82;1.27;;;;;;;9.18;78.77;101914.56;5053170;28;20364;-79
2022/05/29 02:14:26;;;;;;;12.52;1.88;;;;;;;9.20;78.29;101916.28;5053675;28;20033;-78
2022/05/29 02:17:05;;;;;;;10.30;1.77;;;;;;;9.22;77.96;101922.31;5053567;28;20025;-79
2022/05/29 02:19:36;;;;;;;4.47;1.50;;;;;;;9.22;77.71;101915.19;5053366;28;20029;-78
2022/05/29 02:22:08;;;;;;;6.07;1.60;;;;;;;9.23;77.60;101908.09;5053677;28;20043;-79
2022/05/29 02:24:38;;;;;;;7.57;1.50;;;;;;;9.26;77.46;101916.69;5054193;28;20021;-79
2022/05/29 02:27:14;;;;;;;6.38;1.63;;;;;;;9.30;77.76;101922.63;5054199;28;20058;-78
2022/05/29 02:29:40;;;;;;;6.57;1.67;;;;;;;9.34;78.09;101913.50;5054321;28;20480;-78
2022/05/29 02:32:11;;;;;;;10.90;1.63;;;;;;;9.38;78.45;101903.53;5051894;28;20041;-78
2022/05/29 02:34:54;;;;;;;11.55;2.10;;;;;;;9.39;78.00;101906.09;5054158;28;20045;-78
2022/05/29 02:37:37;;;;;;;14.68;2.28;;;;;;;9.42;78.32;101900.56;5053173;28;20130;-78
2022/05/29 02:40:05;;;;;;;10.32;1.92;;;;;;;9.45;78.60;101902.13;5053431;28;20021;-78
2022/05/29 02:42:40;;;;;;;7.43;1.70;;;;;;;9.44;78.35;101898.66;5052619;28;20053;-78
2022/05/29 02:45:41;;;;;;;9.60;1.73;;;;;;;9.51;79.97;101897.28;5052745;28;20025;-78
2022/05/29 02:48:29;;;;;;;13.00;2.20;;;;;;;9.50;81.18;101898.22;5052176;28;20056;-80
2022/05/29 02:51:03;;;;;;;5.43;1.60;;;;;;;9.44;80.47;101901.31;5051964;28;20127;-78
2022/05/29 02:53:32;;;;;;;14.45;1.70;;;;;;;9.38;80.33;101892.91;5052795;28;20085;-78
2022/05/29 02:55:58;;;;;;;8.32;2.00;;;;;;;9.33;79.90;101907.34;5052568;28;20111;-79
2022/05/29 02:58:29;;;;;;;8.48;1.63;;;;;;;9.31;79.38;101905.75;5052638;28;20456;-78
2022/05/29 03:01:17;;;;;;;10.30;1.70;;;;;;;9.28;78.96;101909.47;5052069;28;20029;-79
2022/05/29 03:03:51;;;;;;;7.10;1.52;;;;;;;9.17;78.95;101904.03;5052744;28;20075;-78
2022/05/29 03:06:44;;;;;;;9.23;1.60;;;;;;;9.06;78.92;101902.13;5052872;28;20055;-78
2022/05/29 03:09:36;;;;;;;5.50;1.65;;;;;;;8.99;78.24;101904.31;5039932;28;20048;-77
2022/05/29 03:12:06;;;;;;;6.35;1.55;;;;;;;8.97;78.92;101906.25;5051017;28;20052;-78
2022/05/29 03:14:45;;;;;;;5.90;1.25;;;;;;;8.99;81.26;101914.09;5052135;28;20032;-76
2022/05/29 03:17:18;;;;;;;4.55;1.38;;;;;;;8.92;84.00;101910.16;5052104;28;20040;-77
2022/05/29 03:19:58;;;;;;;3.97;1.35;;;;;;;8.74;86.84;101904.25;5051841;28;20031;-77
2022/05/29 03:22:53;;;;;;;3.75;1.30;;;;;;;8.58;88.14;101912.34;5052863;28;20392;-78
2022/05/29 03:25:27;;;;;;;6.43;1.52;;;;;;;8.44;91.59;101911.44;5052221;28;20025;-78
2022/05/29 03:27:55;;;;;;;6.43;1.73;;;;;;;8.34;93.27;101904.16;5052278;28;20495;-78
2022/05/29 03:30:29;;;;;;;7.70;1.50;;;;;;;8.26;94.44;101902.00;5052651;28;20375;-78
2022/05/29 03:32:58;;;;;;;9.75;1.98;;;;;;;8.20;96.09;101903.25;5052261;28;20111;-85
2022/05/29 03:35:44;;;;;;;9.35;1.73;;;;;;;8.17;97.01;101902.59;5052134;28;20029;-77
2022/05/29 03:38:10;;;;;;;8.38;2.47;;;;;;;8.15;98.02;101893.88;5051844;28;20130;-79
2022/05/29 03:40:36;;;;;;;9.27;2.17;;;;;;;8.08;98.58;101896.91;5051953;28;20461;-81
2022/05/29 03:43:02;;;;;;;8.68;1.98;;;;;;;8.03;99.43;101893.72;5052557;28;20057;-81
2022/05/29 03:45:28;;;;;;;10.05;1.92;;;;;;;7.99;100.00;101883.41;5051161;28;20473;-82
2022/05/29 03:47:54;;;;;;;8.82;2.22;;;;;;;8.01;100.00;101882.34;5052528;28;20139;-81
2022/05/29 03:50:21;;;;;;;9.82;1.80;;;;;;;8.00;100.00;101885.09;5052230;28;20469;-80
2022/05/29 03:52:48;;;;;;;12.25;2.10;;;;;;;8.00;100.00;101883.31;5051732;28;20029;-80
2022/05/29 03:55:15;;;;;;;11.10;2.15;;;;;;;8.00;100.00;101875.34;5051985;28;20087;-80
2022/05/29 03:57:41;;;;;;;5.57;1.73;;;;;;;7.97;100.00;101870.22;5050396;28;20132;-80
2022/05/29 04:00:09;;;;;;;13.68;2.63;;;;;;;7.94;100.00;101859.81;5050710;28;20476;-79
2022/05/29 04:02:35;;;;;;;10.90;1.70;;;;;;;7.92;100.00;101870.50;5051436;28;20477;-80
2022/05/29 04:05:00;;;;;;;8.98;1.85;;;;;;;7.90;100.00;101858.34;5051864;28;20056;-81
2022/05/29 04:12:55;;;;;;;8.88;2.38;;;;;;;7.90;100.00;101861.81;5051689;28;20401;-79
2022/05/29 04:15:21;;;;;;;11.10;2.05;;;;;;;7.93;100.00;101852.84;5051902;28;20029;-79
2022/05/29 04:17:46;;;;;;;13.07;2.60;;;;;;;7.95;100.00;101857.06;5050148;28;20029;-80
2022/05/29 04:20:12;;;;;;;9.55;2.72;;;;;;;7.97;100.00;101851.66;5050122;28;20481;-80
2022/05/29 04:22:37;;;;;;;12.13;1.98;;;;;;;8.01;100.00;101857.66;5051811;28;20131;-79
2022/05/29 04:25:02;;;;;;;6.95;1.80;;;;;;;8.03;100.00;101856.59;5051506;28;20037;-81
2022/05/29 04:27:28;;;;;;;14.68;2.55;;;;;;;8.06;100.00;101848.47;5050467;28;20108;-79
2022/05/29 04:29:53;;;;;;;9.27;1.98;;;;;;;8.11;100.00;101858.75;5055735;28;20043;-80
2022/05/29 04:35:03;;;;;;;9.35;2.00;;;;;;;8.21;100.00;101853.72;5055729;28;20087;-82
2022/05/29 04:37:29;;;;;;;9.45;1.80;;;;;;;8.23;100.00;101865.09;5054752;28;20033;-79
2022/05/29 04:39:54;;;;;;;6.70;1.85;;;;;;;8.27;100.00;101858.59;5053482;28;20091;-79
2022/05/29 04:42:20;;;;;;;6.88;1.80;;;;;;;8.32;100.00;101859.19;5055316;28;20411;-80
2022/05/29 04:44:45;;;;;;;6.88;1.70;;;;;;;8.39;100.00;101863.16;5054960;28;20025;-80
2022/05/29 04:47:10;;;;;;;4.13;1.58;;;;;;;8.45;100.00;101848.66;5054659;28;20033;-80
2022/05/29 04:49:38;;;;;;;4.55;1.67;;;;;;;8.54;100.00;101850.72;5054748;28;20047;-79
2022/05/29 04:52:08;;;;;;;5.80;1.80;;;;;;;8.62;100.00;101842.25;5054609;28;20115;-80
2022/05/29 04:54:35;;;;;;;5.45;1.52;;;;;;;8.75;100.00;101847.59;5054710;28;20060;-79
2022/05/29 04:57:00;;;;;;;7.38;1.48;;;;;;;8.84;100.00;101846.97;5055214;28;20083;-79
2022/05/29 04:59:26;;;;;;;9.43;1.95;;;;;;;8.86;100.00;101850.34;5055081;28;20037;-79
2022/05/29 05:01:52;;;;;;;7.88;1.80;;;;;;;8.81;100.00;101850.66;5053384;28;20032;-79
2022/05/29 05:04:17;;;;;;;5.53;1.90;;;;;;;8.78;100.00;101850.88;5055100;28;20102;-79
2022/05/29 05:06:43;;;;;;;5.78;1.60;;;;;;;8.76;100.00;101839.53;5054789;28;20025;-80
2022/05/29 05:09:08;;;;;;;7.93;1.70;;;;;;;8.76;100.00;101842.19;5055033;28;20029;-80
2022/05/29 05:11:34;;;;;;;5.55;1.70;;;;;;;8.76;100.00;101838.66;5054962;28;20075;-79
2022/05/29 05:13:59;;;;;;;7.43;2.03;;;;;;;8.74;100.00;101845.88;5054739;28;20027;-79
2022/05/29 05:16:25;;;;;;;6.85;1.83;;;;;;;8.78;100.00;101844.72;5054596;28;20353;-80
2022/05/29 05:18:50;;;;;;;8.30;1.67;;;;;;;8.84;100.00;101849.63;5053591;28;20043;-79
2022/05/29 05:21:16;;;;;;;7.70;2.10;;;;;;;8.95;100.00;101851.53;5036296;28;20083;-79
2022/05/29 05:23:41;;;;;;;4.53;1.58;;;;;;;9.04;100.00;101845.59;5054386;28;20473;-78
2022/05/29 05:26:11;;;;;;;4.43;1.90;;;;;;;9.13;100.00;101842.31;5054644;28;20047;-79
2022/05/29 05:28:37;;;;;;;9.10;2.03;;;;;;;9.20;100.00;101842.75;5053980;28;20108;-79
2022/05/29 05:31:02;;;;;;;6.68;1.85;;;;;;;9.23;100.00;101852.34;5053897;28;20067;-80
2022/05/29 05:33:28;;;;;;;9.82;2.55;;;;;;;9.16;100.00;101846.56;5053789;28;20098;-79
2022/05/29 05:35:55;;;;;;;10.95;2.45;;;;;;;9.05;100.00;101842.00;5052852;28;20061;-79
2022/05/29 05:38:22;;;;;;;5.25;1.90;;;;;;;8.99;100.00;101851.22;5053945;28;20108;-79
2022/05/29 05:40:47;;;;;;;10.15;2.20;;;;;;;8.83;99.08;101848.75;5053217;28;20061;-79
2022/05/29 05:43:12;;;;;;;6.95;1.95;;;;;;;8.75;99.39;101844.94;5054059;28;20033;-79
2022/05/29 05:45:42;;;;;;;11.15;2.33;;;;;;;8.68;100.00;101843.63;5053603;28;20393;-79
2022/05/29 05:48:08;;;;;;;7.65;2.30;;;;;;;8.65;100.00;101844.69;5054264;28;20063;-79
2022/05/29 05:50:34;;;;;;;11.95;2.72;;;;;;;8.65;100.00;101847.34;5052563;28;20053;-79
2022/05/29 05:52:59;;;;;;;8.60;2.25;;;;;;;8.73;100.00;101853.00;5053844;28;20044;-79
2022/05/29 05:55:25;;;;;;;6.28;1.80;;;;;;;8.81;100.00;101848.03;5053697;28;20051;-80
2022/05/29 05:57:52;;;;;;;8.90;2.17;;;;;;;8.98;100.00;101851.34;5054190;28;20036;-80
2022/05/29 06:00:18;;;;;;;7.63;2.00;;;;;;;9.12;100.00;101842.41;5053788;28;20037;-81
2022/05/29 06:02:45;;;;;;;8.27;2.50;;;;;;;9.30;100.00;101838.53;5053931;28;20142;-80
2022/05/29 06:05:12;;;;;;;8.80;2.00;;;;;;;9.53;100.00;101834.25;5054378;28;20037;-79
2022/05/29 06:07:38;;;;;;;8.15;2.08;;;;;;;9.77;100.00;101830.81;5053480;28;20055;-80
2022/05/29 06:10:04;;;;;;;5.00;2.83;;;;;;;9.95;100.00;101827.78;5053446;28;20061;-80
2022/05/29 06:12:29;;;;;;;7.05;2.05;;;;;;;10.11;99.33;101830.19;5053468;28;20133;-80
2022/05/29 06:14:57;;;;;;;7.90;2.08;;;;;;;10.28;97.84;101829.78;5052246;28;20108;-79
2022/05/29 06:17:22;;;;;;;9.00;2.10;;;;;;;10.51;97.11;101827.25;5053280;28;20041;-80
2022/05/29 06:19:48;;;;;;;8.40;2.75;;;;;;;10.77;96.16;101827.97;5053396;28;20033;-80
2022/05/29 06:22:13;;;;;;;12.32;1.90;;;;;;;10.81;91.10;101824.13;5053262;28;20505;-79
2022/05/29 06:24:38;;;;;;;11.25;1.85;;;;;;;10.71;89.39;101834.59;5053833;28;20025;-80
2022/05/29 06:27:04;;;;;;;14.10;2.65;;;;;;;10.53;91.00;101836.84;5053527;28;20043;-80
2022/05/29 06:29:30;;;;;;;7.50;1.65;;;;;;;10.15;91.80;101837.84;5053259;28;20068;-80
2022/05/29 06:32:00;;;;;;;11.40;2.40;;;;;;;9.85;93.92;101831.13;5053509;28;20445;-80
2022/05/29 06:34:25;;;;;;;6.95;2.08;;;;;;;9.68;96.20;101839.44;5035467;28;20065;-80
2022/05/29 06:36:50;;;;;;;3.83;1.75;;;;;;;9.55;98.28;101842.09;5053391;28;20095;-80
2022/05/29 06:39:16;;;;;;;9.25;2.03;;;;;;;9.57;99.21;101842.88;5052892;28;20029;-78
2022/05/29 06:41:41;;;;;;;6.18;1.73;;;;;;;9.66;100.00;101839.53;5053861;28;20549;-78
2022/05/29 06:44:07;;;;;;;11.75;2.28;;;;;;;9.76;100.00;101839.72;5053750;28;20143;-78
2022/05/29 06:46:32;;;;;;;9.40;1.88;;;;;;;9.83;100.00;101829.53;5053036;28;20040;-78
2022/05/29 06:48:58;;;;;;;9.10;2.53;;;;;;;9.80;97.94;101843.03;5052417;28;20211;-78
2022/05/29 06:51:23;;;;;;;7.43;1.92;;;;;;;9.85;97.68;101831.13;5051958;28;20063;-78
2022/05/29 06:53:50;;;;;;;6.88;1.75;;;;;;;9.91;97.23;101828.97;5052507;28;20473;-78
2022/05/29 06:56:17;;;;;;;5.93;1.52;;;;;;;9.97;97.01;101831.19;5052559;28;20044;-79
2022/05/29 06:58:42;;;;;;;9.85;1.90;;;;;;;10.08;97.31;101831.25;5052476;28;20047;-79
2022/05/29 07:06:59;;;;;;;7.30;2.05;;;;;;;10.04;95.26;101833.28;5053310;28;20079;-79
2022/05/29 07:09:36;;;;;;;13.50;2.25;;;;;;;9.89;96.85;101827.25;5053146;28;20116;-80
2022/05/29 07:12:16;;;;;;;11.73;2.35;;;;;;;9.76;98.56;101826.44;5053108;28;20451;-81
2022/05/29 07:15:06;;;;;;;8.75;1.88;;;;;;;9.74;99.75;101823.06;5052475;28;20051;-81
2022/05/29 07:17:32;;;;;;;12.63;2.00;;;;;;;9.76;100.00;101822.94;5049236;28;20048;-79
2022/05/29 07:19:58;;;;;;;9.48;2.20;;;;;;;9.81;100.00;101815.50;5052551;28;20091;-79
2022/05/29 07:22:24;;;;;;;11.93;2.40;;;;;;;9.75;97.81;101822.09;5052077;28;20492;-80
2022/05/29 07:24:49;;;;;;;14.57;1.98;;;;;;;9.74;97.52;101827.53;5053220;28;20045;-80
2022/05/29 07:27:15;;;;;;;7.32;1.80;;;;;;;9.65;96.17;101821.91;5051956;28;20400;-81
2022/05/29 07:29:40;;;;;;;12.20;2.20;;;;;;;9.67;96.28;101824.44;5051135;28;20108;-78
2022/05/29 07:32:06;;;;;;;8.98;2.10;;;;;;;9.70;94.41;101826.88;5052264;28;20048;-79
2022/05/29 07:34:32;;;;;;;12.10;2.05;;;;;;;9.75;93.87;101818.56;5050847;28;20036;-78
2022/05/29 07:37:06;;;;;;;8.73;2.10;;;;;;;9.92;94.04;101823.53;5050322;28;20032;-81
2022/05/29 07:39:41;;;;;;;6.68;1.98;;;;;;;10.13;92.78;101822.94;5052348;28;20404;-77
2022/05/29 07:44:52;;;;;;;7.82;1.90;;;;;;;10.91;87.49;101819.81;5052108;28;20136;-78
2022/05/29 07:47:18;;;;;;;7.95;1.92;;;;;;;11.09;87.75;101819.31;5051862;28;20127;-78
2022/05/29 07:49:44;;;;;;;6.97;1.63;;;;;;;11.19;86.98;101827.47;5051562;28;20384;-77
2022/05/29 07:52:09;;;;;;;10.43;1.70;;;;;;;11.39;88.28;101817.91;5052166;28;20035;-77
2022/05/29 07:54:35;;;;;;;17.48;2.33;;;;;;;11.55;86.95;101813.06;5051893;28;20025;-78
2022/05/29 07:57:00;;;;;;;6.38;1.70;;;;;;;11.74;85.47;101817.78;5051812;28;20041;-77
2022/05/29 07:59:25;;;;;;;10.43;1.80;;;;;;;11.73;84.02;101817.91;5051350;28;20048;-77
2022/05/29 08:01:51;;;;;;;6.95;1.63;;;;;;;11.80;82.81;101821.78;5052183;28;20074;-76
2022/05/29 08:04:16;;;;;;;6.10;1.42;;;;;;;11.75;83.04;101821.31;5054499;28;20530;-78
2022/05/29 08:06:42;;;;;;;6.93;1.40;;;;;;;11.60;84.49;101821.56;5055736;28;20161;-78
2022/05/29 08:09:08;;;;;;;10.57;1.48;;;;;;;11.50;84.20;101823.25;5055629;28;20033;-78
2022/05/29 08:11:34;;;;;;;6.10;1.50;;;;;;;11.60;85.94;101818.91;5055154;28;20040;-79
2022/05/29 08:14:01;;;;;;;4.30;1.15;;;;;;;11.63;81.30;101821.31;5054661;28;20326;-77
2022/05/29 08:16:26;;;;;;;7.45;1.17;;;;;;;11.77;79.55;101819.38;5055470;28;20468;-78
2022/05/29 08:18:53;;;;;;;10.45;1.30;;;;;;;11.96;78.65;101819.59;5037401;28;20180;-78
2022/05/29 08:21:19;;;;;;;5.50;1.50;;;;;;;12.08;78.76;101817.75;5055458;28;20112;-78
2022/05/29 08:30:37;;;;;;;8.13;1.52;;;;;;;12.42;78.92;101819.47;5054527;28;20360;-79
2022/05/29 08:31:58;;;;;;;10.85;1.45;;;;;;;12.92;76.58;101825.06;5055426;28;20099;-78
2022/05/29 08:34:23;;;;;;;5.25;1.80;;;;;;;13.10;75.32;101816.47;5053937;28;20037;-78
2022/05/29 08:36:49;;;;;;;7.00;1.52;;;;;;;13.03;74.76;101808.97;5055129;28;20048;-78
2022/05/29 08:39:15;;;;;;;4.85;1.70;;;;;;;12.89;74.59;101822.66;5055393;28;20033;-78
2022/05/29 08:41:46;;;;;;;4.45;1.08;;;;;;;12.39;75.52;101811.72;5055585;28;20493;-76
2022/05/29 08:44:15;;;;;;;9.85;1.38;;;;;;;12.03;78.27;101827.94;5056064;28;20111;-78
2022/05/29 08:46:49;;;;;;;6.53;1.20;;;;;;;11.78;79.00;101829.06;5054498;28;20333;-78
2022/05/29 08:49:21;;;;;;;3.72;1.02;;;;;;;11.58;79.54;101831.47;5055888;28;20040;-78
2022/05/29 08:51:46;;;;;;;;;;;;;;;11.55;81.20;101830.88;5056717;28;20404;-78
2022/05/29 08:54:16;;;;;;;5.23;1.10;;;;;;;11.52;80.88;101834.63;5055755;28;19913;-78
2022/05/29 08:57:10;;;;;;;4.17;1.43;;;;;;;11.74;80.29;101836.44;5056014;28;20255;-79
2022/05/29 08:59:53;;;;;;;3.53;0.90;;;;;;;11.97;81.27;101836.44;5054989;28;20283;-78
2022/05/29 09:02:18;;;;;;;3.58;1.15;;;;;;;12.10;78.97;101839.81;5054864;28;20077;-79
2022/05/29 09:04:50;;;;;;;3.63;0.85;;;;;;;12.33;78.50;101835.28;5054078;28;20029;-79
2022/05/29 09:07:18;;;;;;;1.45;0.50;;;;;;;12.84;79.05;101833.72;5055565;28;20142;-79
2022/05/29 09:09:52;;;;;;;7.53;1.23;;;;;;;13.12;75.10;101819.84;5055170;28;20033;-79
2022/05/29 09:12:24;;;;;;;7.63;0.70;;;;;;;13.49;72.67;101828.22;5056019;28;20133;-79
2022/05/29 09:15:02;;;;;;;3.50;0.82;;;;;;;13.95;72.42;101812.59;5054201;28;20068;-80
2022/05/29 09:17:39;;;;;;;2.45;0.80;;;;;;;14.54;70.56;101816.19;5055409;28;20063;-79
2022/05/29 09:20:26;;;;;;;2.17;0.65;;;;;;;14.90;67.17;101821.81;5055260;28;20033;-79
2022/05/29 09:22:51;;;;;;;4.65;0.70;;;;;;;14.92;67.57;101814.47;5055195;28;20029;-79
2022/05/29 09:25:33;;;;;;;3.60;1.00;;;;;;;14.85;67.10;101815.19;5055197;28;20033;-78
2022/05/29 09:28:05;;;;;;;3.33;1.30;;;;;;;14.64;68.88;101805.50;5054854;28;20031;-80
2022/05/29 09:30:31;;;;;;;5.57;1.27;;;;;;;14.40;69.50;101804.06;5055110;28;20044;-79
2022/05/29 09:33:05;;;;;;;5.72;1.33;;;;;;;13.77;70.06;101808.91;5054929;28;20029;-78
2022/05/29 09:36:02;;;;;;;11.02;1.50;;;;;;;13.27;71.23;101810.50;5055113;28;20076;-79
2022/05/29 09:38:35;;;;;;;9.23;1.15;;;;;;;12.49;72.09;101812.66;5054586;28;20032;-78
2022/05/29 09:41:31;;;;;;;3.40;0.90;;;;;;;11.90;74.15;101811.25;5054548;28;20049;-78
2022/05/29 09:43:59;;;;;;;6.60;0.82;;;;;;;11.74;75.93;101807.13;5054691;28;20030;-79
2022/05/29 09:46:32;;;;;;;5.82;1.08;;;;;;;11.97;76.41;101810.63;5054699;28;20037;-78
2022/05/29 09:52:04;;;;;;;4.05;1.05;;;;;;;12.72;72.94;101805.41;5055367;28;20126;-81
2022/05/29 09:54:34;;;;;;;3.63;1.00;;;;;;;13.17;72.29;101805.09;5053922;28;20347;-79
2022/05/29 09:57:09;;;;;;;8.15;1.52;;;;;;;13.48;69.69;101802.47;5054401;28;20082;-76
2022/05/29 09:59:44;;;;;;;6.15;1.67;;;;;;;13.20;70.69;101812.84;5054478;28;20429;-79
2022/05/29 10:02:40;;;;;;;3.00;1.27;;;;;;;12.65;72.37;101817.56;5054697;28;20124;-80
2022/05/29 10:05:19;;;;;;;8.13;1.65;;;;;;;12.45;74.17;101824.53;5049824;28;20097;-80
2022/05/29 10:07:47;;;;;;;7.20;1.48;;;;;;;12.38;75.95;101813.53;5054705;28;20025;-80
2022/05/29 10:10:27;;;;;;;8.35;1.42;;;;;;;12.51;77.29;101814.22;5054591;28;20457;-79
2022/05/29 10:12:56;;;;;;;5.28;1.60;;;;;;;12.77;76.70;101816.53;5054470;28;20457;-79
2022/05/29 10:15:24;;;;;;;6.50;1.00;;;;;;;12.74;75.94;101814.13;5053332;28;20135;-81
2022/05/29 10:17:51;;;;;;;7.32;1.33;;;;;;;12.92;74.96;101806.34;5054626;28;20024;-79
2022/05/29 10:20:35;;;;;;;4.90;1.63;;;;;;;13.32;74.03;101799.41;5052940;28;20033;-77
2022/05/29 10:23:05;;;;;;;5.70;1.65;;;;;;;13.76;71.75;101802.69;5053775;28;20124;-76
2022/05/29 10:25:34;;;;;;;6.95;1.67;;;;;;;14.58;69.45;101800.66;5053155;28;20113;-78
2022/05/29 10:28:18;;;;;;;7.00;1.65;;;;;;;15.33;64.52;101801.69;5053989;28;20025;-78
2022/05/29 10:30:48;;;;;;;6.28;1.40;;;;;;;15.49;63.18;101800.19;5054011;28;20037;-78
2022/05/29 10:33:23;;;;;;;10.18;1.70;;;;;;;15.61;63.61;101803.53;5054618;28;20028;-78
2022/05/29 10:35:52;;;;;;;7.97;1.70;;;;;;;15.46;61.66;101800.50;5054252;28;20064;-78
2022/05/29 10:38:17;;;;;;;7.03;1.83;;;;;;;15.30;63.15;101803.78;5054812;28;20107;-78
2022/05/29 10:40:43;;;;;;;12.73;2.22;;;;;;;15.03;63.55;101801.91;5053902;28;20045;-78
2022/05/29 10:43:09;;;;;;;5.88;1.10;;;;;;;14.60;63.85;101806.72;5054489;28;20060;-78
2022/05/29 10:45:41;;;;;;;4.82;1.27;;;;;;;14.50;62.87;101800.56;5054245;28;20136;-79
2022/05/29 10:48:25;;;;;;;8.88;2.50;;;;;;;14.48;62.66;101803.38;5054249;28;20064;-80
2022/05/29 10:51:06;;;;;;;6.05;1.45;;;;;;;14.37;61.44;101798.16;5057548;28;20035;-78
2022/05/29 10:54:02;;;;;;;10.83;1.93;;;;;;;14.58;65.28;101806.88;5053769;28;20091;-80
2022/05/29 10:56:46;;;;;;;9.65;1.40;;;;;;;14.46;63.71;101806.19;5054496;28;20290;-79
2022/05/29 10:59:17;;;;;;;7.45;1.50;;;;;;;14.27;62.63;101800.81;5054652;28;20040;-76
2022/05/29 11:05:30;;;;;;;9.85;2.00;;;;;;;14.34;58.39;101795.75;5054070;28;19962;-77
2022/05/29 11:08:08;;;;;;;8.18;1.55;;;;;;;14.18;55.76;101789.13;5053818;28;20020;-77
2022/05/29 11:11:09;;;;;;;8.35;1.95;;;;;;;14.12;57.97;101792.34;5053398;28;20075;-78
2022/05/29 11:14:19;;;;;;;8.18;1.80;;;;;;;14.23;57.58;101797.56;5053273;28;20105;-78
2022/05/29 11:17:12;;;;;;;4.82;1.27;;;;;;;14.10;56.52;101792.47;5052239;28;20371;-78
2022/05/29 11:20:11;;;;;;;7.75;1.38;;;;;;;14.02;55.51;101786.16;5052837;28;20037;-79
2022/05/29 11:23:00;;;;;;;6.25;1.33;;;;;;;14.21;56.40;101791.53;5051749;28;20462;-79
2022/05/29 11:25:35;;;;;;;6.22;1.58;;;;;;;14.29;56.37;101791.66;5053244;28;20100;-81
2022/05/29 11:28:28;;;;;;;7.20;1.17;;;;;;;14.25;56.87;101792.91;5052864;28;20029;-81
2022/05/29 11:31:14;;;;;;;6.22;1.65;;;;;;;14.37;58.63;101790.94;5052992;28;20079;-81
2022/05/29 11:33:54;;;;;;;5.75;1.50;;;;;;;14.91;57.81;101790.50;5053494;28;20041;-81
2022/05/29 11:36:25;;;;;;;6.85;1.63;;;;;;;15.34;54.91;101786.44;5053183;28;20085;-80
2022/05/29 11:39:18;;;;;;;5.63;1.25;;;;;;;15.49;52.22;101771.53;5053102;28;20032;-80
2022/05/29 11:41:51;;;;;;;8.73;1.40;;;;;;;15.28;53.32;101781.66;5053394;28;20045;-80
2022/05/29 11:44:31;;;;;;;4.60;1.48;;;;;;;15.41;53.06;101773.28;5052922;28;20457;-79
2022/05/29 11:53:04;;;;;;;4.13;1.13;;;;;;;15.27;54.00;101769.22;5052945;28;20044;-78
2022/05/29 11:55:40;;;;;;;5.65;1.33;;;;;;;15.05;54.55;101767.75;5053223;28;20040;-78
2022/05/29 11:58:28;;;;;;;5.97;1.40;;;;;;;15.13;53.55;101768.72;5052405;28;20103;-81
2022/05/29 12:01:02;;;;;;;5.47;1.77;;;;;;;15.42;52.87;101766.91;5051236;28;20025;-79
2022/05/29 12:03:57;;;;;;;9.02;1.52;;;;;;;15.59;52.51;101766.13;5053242;28;20029;-79
2022/05/29 12:06:41;;;;;;;6.50;1.40;;;;;;;15.63;51.77;101766.66;5052253;28;20124;-80
2022/05/29 12:09:28;;;;;;;8.35;1.33;;;;;;;16.17;53.17;101764.94;5053285;28;20064;-79
2022/05/29 12:12:08;;;;;;;10.02;1.60;;;;;;;16.32;51.42;101761.72;5052997;28;20040;-78
2022/05/29 12:15:17;;;;;;;10.00;1.70;;;;;;;16.65;50.30;101762.81;5052797;28;20025;-79
2022/05/29 12:17:50;;;;;;;3.83;1.40;;;;;;;16.28;50.80;101761.16;5013495;28;20040;-76
2022/05/29 12:20:39;;;;;;;6.65;1.30;;;;;;;15.64;51.42;101758.47;5049583;28;20041;-77
2022/05/29 12:23:12;;;;;;;4.32;1.63;;;;;;;16.80;51.66;101755.00;5052902;28;20048;-78
2022/05/29 12:25:48;;;;;;;6.75;1.63;;;;;;;18.24;49.03;101753.41;5052848;28;20025;-77
2022/05/29 12:28:23;;;;;;;6.00;1.40;;;;;;;19.36;47.25;101746.34;5052644;28;20061;-77